createdAt,value
2022-09-17T00:02:08.523Z,97080.03
2022-09-17T00:04:38.727Z,97079.91
2022-09-17T00:07:07.042Z,97083.28
2022-09-17T00:09:37.598Z,97084.00
2022-09-17T00:12:06.266Z,97076.69
2022-09-17T00:14:34.611Z,97081.59
2022-09-17T00:17:04.414Z,97088.53
2022-09-17T00:19:32.787Z,97081.22
2022-09-17T00:22:04.450Z,97080.88
2022-09-17T00:24:32.787Z,97084.72
2022-09-17T00:27:01.118Z,97079.75
2022-09-17T00:29:29.839Z,97076.84
2022-09-17T00:31:58.207Z,97083.31
2022-09-17T00:34:26.593Z,97079.47
2022-09-17T00:36:54.892Z,97081.47
2022-09-17T00:39:24.970Z,97079.75
2022-09-17T00:41:53.324Z,97078.63
2022-09-17T00:44:41.411Z,97086.69
2022-09-17T00:47:14.122Z,97079.06
2022-09-17T00:49:42.424Z,97079.78
2022-09-17T00:52:12.556Z,97087.41
2022-09-17T00:54:43.985Z,97081.34
2022-09-17T00:57:12.414Z,97090.94
2022-09-17T00:59:40.972Z,97087.28
2022-09-17T01:02:09.340Z,97088.53
2022-09-17T01:04:37.734Z,97088.66
2022-09-17T01:07:10.852Z,97090.94
2022-09-17T01:09:45.451Z,97092.63
2022-09-17T01:12:25.620Z,97089.97
2022-09-17T01:15:02.244Z,97088.78
2022-09-17T01:17:32.701Z,97078.78
2022-09-17T01:20:23.206Z,97092.75
2022-09-17T01:23:00.098Z,97097.56
2022-09-17T01:25:35.407Z,97090.22
2022-09-17T01:28:22.495Z,97089.13
2022-09-17T01:31:06.407Z,97089.53
2022-09-17T01:33:40.615Z,97084.75
2022-09-17T01:36:17.698Z,97094.72
2022-09-17T01:38:48.679Z,97105.56
2022-09-17T01:41:20.009Z,97099.38
2022-09-17T01:43:50.231Z,97106.56
2022-09-17T01:46:23.036Z,97107.13
2022-09-17T01:48:52.268Z,97110.09
2022-09-17T01:51:22.371Z,97113.34
2022-09-17T01:53:52.938Z,97102.38
2022-09-17T01:56:24.510Z,97103.63
2022-09-17T01:58:55.365Z,97115.59
2022-09-17T02:01:25.588Z,97111.50
2022-09-17T02:03:56.298Z,97111.34
2022-09-17T02:06:27.376Z,97118.44
2022-09-17T02:08:58.506Z,97106.56
2022-09-17T02:11:26.935Z,97109.56
2022-09-17T02:13:56.388Z,97109.81
2022-09-17T02:19:18.985Z,97117.13
2022-09-17T02:21:48.184Z,97117.50
2022-09-17T02:24:21.072Z,97110.81
2022-09-17T02:26:52.083Z,97112.91
2022-09-17T02:29:24.799Z,97112.63
2022-09-17T02:31:55.049Z,97109.38
2022-09-17T02:34:27.718Z,97121.38
2022-09-17T02:36:56.065Z,97114.75
2022-09-17T02:39:24.377Z,97112.09
2022-09-17T02:41:55.595Z,97119.41
2022-09-17T02:44:28.792Z,97122.34
2022-09-17T02:47:07.221Z,97117.72
2022-09-17T02:49:57.758Z,97118.44
2022-09-17T02:52:33.041Z,97120.97
2022-09-17T02:55:03.955Z,97127.72
2022-09-17T02:57:34.824Z,97121.09
2022-09-17T03:00:09.946Z,97126.44
2022-09-17T03:02:41.109Z,97122.66
2022-09-17T03:05:09.952Z,97128.25
2022-09-17T03:07:38.484Z,97124.81
2022-09-17T03:10:07.437Z,97113.34
2022-09-17T03:12:35.854Z,97117.28
2022-09-17T03:15:04.177Z,97126.59
2022-09-17T03:17:32.498Z,97126.16
2022-09-17T03:20:02.186Z,97133.19
2022-09-17T03:22:30.525Z,97127.69
2022-09-17T03:24:59.199Z,97131.00
2022-09-17T03:27:27.540Z,97123.63
2022-09-17T03:29:55.883Z,97125.72
2022-09-17T03:32:24.254Z,97123.34
2022-09-17T03:34:54.176Z,97128.81
2022-09-17T03:37:23.887Z,97121.09
2022-09-17T03:39:52.302Z,97133.69
2022-09-17T03:42:20.651Z,97126.56
2022-09-17T03:44:48.959Z,97135.81
2022-09-17T03:47:18.094Z,97132.06
2022-09-17T03:49:46.445Z,97132.97
2022-09-17T03:52:14.816Z,97145.25
2022-09-17T03:54:44.531Z,97143.84
2022-09-17T03:57:12.925Z,97143.63
2022-09-17T03:59:41.247Z,97137.63
2022-09-17T04:02:09.963Z,97145.38
2022-09-17T04:04:38.315Z,97146.22
2022-09-17T04:07:06.763Z,97149.09
2022-09-17T04:09:35.468Z,97149.88
2022-09-17T04:12:05.960Z,97150.31
2022-09-17T04:14:34.826Z,97149.63
2022-09-17T04:17:03.140Z,97156.72
2022-09-17T04:19:31.466Z,97143.03
2022-09-17T04:22:00.413Z,97155.88
2022-09-17T04:24:28.747Z,97154.44
2022-09-17T04:26:57.121Z,97145.19
2022-09-17T04:29:26.885Z,97163.19
2022-09-17T04:31:55.186Z,97155.63
2022-09-17T04:34:24.000Z,97157.72
2022-09-17T04:36:52.325Z,97159.25
2022-09-17T04:39:20.672Z,97157.56
2022-09-17T04:41:49.021Z,97154.31
2022-09-17T04:44:17.306Z,97154.31
2022-09-17T04:46:47.060Z,97158.41
2022-09-17T04:49:17.391Z,97159.66
2022-09-17T04:51:45.695Z,97156.72
2022-09-17T04:54:14.842Z,97167.13
2022-09-17T04:56:43.669Z,97159.44
2022-09-17T04:59:12.131Z,97164.78
2022-09-17T05:01:40.595Z,97167.75
2022-09-17T05:04:10.404Z,97169.72
2022-09-17T05:06:39.263Z,97164.63
2022-09-17T05:09:08.293Z,97169.09
2022-09-17T05:11:42.018Z,97171.72
2022-09-17T05:14:11.076Z,97174.47
2022-09-17T05:16:39.580Z,97166.56
2022-09-17T05:19:09.527Z,97170.50
2022-09-17T05:21:38.699Z,97172.66
2022-09-17T05:24:07.359Z,97164.19
2022-09-17T05:26:36.011Z,97177.69
2022-09-17T05:29:04.934Z,97166.28
2022-09-17T05:31:36.344Z,97169.97
2022-09-17T05:34:05.473Z,97173.34
2022-09-17T05:36:36.714Z,97173.97
2022-09-17T05:39:05.063Z,97180.09
2022-09-17T05:41:33.473Z,97182.34
2022-09-17T05:44:01.840Z,97182.00
2022-09-17T05:46:30.831Z,97191.53
2022-09-17T05:49:02.077Z,97196.16
2022-09-17T05:51:30.408Z,97201.78
2022-09-17T05:56:45.941Z,97208.06
2022-09-17T05:59:15.734Z,97208.53
2022-09-17T06:01:47.227Z,97209.53
2022-09-17T06:04:16.245Z,97220.25
2022-09-17T06:06:44.624Z,97214.66
2022-09-17T06:09:15.254Z,97218.16
2022-09-17T06:11:43.666Z,97220.72
2022-09-17T06:14:12.053Z,97215.69
2022-09-17T06:16:40.667Z,97220.69
2022-09-17T06:19:09.688Z,97214.25
2022-09-17T06:21:38.755Z,97217.50
2022-09-17T06:24:07.528Z,97205.25
2022-09-17T06:26:37.454Z,97212.28
2022-09-17T06:29:05.823Z,97217.66
2022-09-17T06:31:34.306Z,97221.16
2022-09-17T06:34:09.495Z,97222.00
2022-09-17T06:36:37.858Z,97220.34
2022-09-17T06:39:06.339Z,97221.47
2022-09-17T06:41:34.819Z,97218.78
2022-09-17T06:44:23.337Z,97218.91
2022-09-17T06:46:52.536Z,97227.22
2022-09-17T06:49:20.924Z,97226.25
2022-09-17T06:51:49.289Z,97227.81
2022-09-17T06:54:18.053Z,97231.88
2022-09-17T06:56:48.340Z,97244.00
2022-09-17T06:59:16.688Z,97239.06
2022-09-17T07:01:47.653Z,97234.00
2022-09-17T07:04:17.662Z,97244.72
2022-09-17T07:06:46.302Z,97250.50
2022-09-17T07:09:14.725Z,97252.06
2022-09-17T07:11:43.514Z,97249.09
2022-09-17T07:14:12.039Z,97250.94
2022-09-17T07:16:40.610Z,97249.25
2022-09-17T07:19:11.238Z,97255.00
2022-09-17T07:21:40.166Z,97255.84
2022-09-17T07:24:30.674Z,97256.25
2022-09-17T07:27:01.912Z,97253.56
2022-09-17T07:29:32.487Z,97256.41
2022-09-17T07:32:00.904Z,97250.19
2022-09-17T07:34:30.931Z,97259.34
2022-09-17T07:36:59.499Z,97246.69
2022-09-17T07:39:27.926Z,97242.63
2022-09-17T07:41:57.196Z,97245.72
2022-09-17T07:44:25.600Z,97250.81
2022-09-17T07:46:53.989Z,97241.59
2022-09-17T07:49:24.303Z,97254.00
2022-09-17T07:51:55.013Z,97240.22
2022-09-17T07:54:25.410Z,97245.00
2022-09-17T07:56:53.763Z,97240.22
2022-09-17T07:59:22.704Z,97250.34
2022-09-17T08:01:51.145Z,97240.03
2022-09-17T08:04:19.780Z,97242.72
2022-09-17T08:09:36.298Z,97239.25
2022-09-17T08:12:21.995Z,97239.75
2022-09-17T08:14:50.304Z,97236.59
2022-09-17T08:17:20.844Z,97236.97
2022-09-17T08:19:49.376Z,97227.75
2022-09-17T08:22:20.795Z,97237.50
2022-09-17T08:24:50.493Z,97229.53
2022-09-17T08:27:19.334Z,97241.75
2022-09-17T08:29:47.715Z,97235.81
2022-09-17T08:32:18.720Z,97236.81
2022-09-17T08:34:46.999Z,97233.94
2022-09-17T08:37:15.719Z,97235.53
2022-09-17T08:39:44.047Z,97234.94
2022-09-17T08:42:17.917Z,97245.63
2022-09-17T08:44:48.604Z,97250.41
2022-09-17T08:47:22.509Z,97247.78
2022-09-17T08:50:09.465Z,97245.59
2022-09-17T08:53:02.063Z,97238.13
2022-09-17T08:55:54.250Z,97227.38
2022-09-17T08:58:32.137Z,97232.94
2022-09-17T09:01:07.199Z,97240.84
2022-09-17T09:03:42.037Z,97236.91
2022-09-17T09:06:11.131Z,97239.47
2022-09-17T09:08:58.900Z,97236.63
2022-09-17T09:11:31.153Z,97230.66
2022-09-17T09:14:03.308Z,97211.94
2022-09-17T09:16:34.155Z,97227.28
2022-09-17T09:19:13.530Z,97232.03
2022-09-17T09:21:45.610Z,97222.38
2022-09-17T09:24:20.381Z,97231.72
2022-09-17T09:26:49.571Z,97224.34
2022-09-17T09:29:23.433Z,97223.69
2022-09-17T09:32:01.589Z,97219.78
2022-09-17T09:34:30.146Z,97226.09
2022-09-17T09:37:03.829Z,97216.44
2022-09-17T09:39:41.231Z,97225.88
2022-09-17T09:42:16.204Z,97224.03
2022-09-17T09:44:46.370Z,97227.31
2022-09-17T09:47:23.096Z,97227.91
2022-09-17T09:49:59.757Z,97223.38
2022-09-17T09:52:40.144Z,97211.53
2022-09-17T09:55:25.873Z,97205.25
2022-09-17T09:57:57.001Z,97212.75
2022-09-17T10:00:29.428Z,97203.88
2022-09-17T10:03:01.491Z,97204.03
2022-09-17T10:05:29.879Z,97216.06
2022-09-17T10:07:59.463Z,97212.84
2022-09-17T10:10:56.941Z,97204.50
2022-09-17T10:13:25.568Z,97203.81
2022-09-17T10:15:56.576Z,97220.22
2022-09-17T10:18:25.556Z,97215.84
2022-09-17T10:20:56.121Z,97219.66
2022-09-17T10:23:25.536Z,97199.13
2022-09-17T10:25:55.839Z,97207.41
2022-09-17T10:28:33.343Z,97211.94
2022-09-17T10:31:08.643Z,97199.63
2022-09-17T10:33:38.331Z,97201.97
2022-09-17T10:36:07.989Z,97198.13
2022-09-17T10:38:38.357Z,97204.81
2022-09-17T10:41:15.811Z,97233.09
2022-09-17T10:43:44.438Z,97230.59
2022-09-17T10:46:17.230Z,97242.38
2022-09-17T10:48:47.519Z,97244.50
2022-09-17T10:51:22.920Z,97243.28
2022-09-17T10:54:04.879Z,97224.22
2022-09-17T10:56:36.554Z,97227.56
2022-09-17T10:59:14.218Z,97233.25
2022-09-17T11:04:43.391Z,97230.00
2022-09-17T11:10:19.930Z,97221.13
2022-09-17T11:12:57.785Z,97221.13
2022-09-17T11:15:32.706Z,97224.22
2022-09-17T11:18:31.278Z,97227.03
2022-09-17T11:21:08.707Z,97215.56
2022-09-17T11:23:51.859Z,97229.84
2022-09-17T11:26:27.824Z,97227.78
2022-09-17T11:28:59.375Z,97226.50
2022-09-17T11:31:32.107Z,97238.13
2022-09-17T11:34:12.522Z,97246.94
2022-09-17T11:36:46.111Z,97244.19
2022-09-17T11:39:16.023Z,97240.22
2022-09-17T11:41:45.538Z,97233.03
2022-09-17T11:44:16.164Z,97231.16
2022-09-17T11:46:45.769Z,97237.00
2022-09-17T11:49:19.975Z,97239.75
2022-09-17T11:51:49.276Z,97240.03
2022-09-17T11:54:20.847Z,97232.84
2022-09-17T11:56:50.714Z,97242.78
2022-09-17T11:59:22.614Z,97248.53
2022-09-17T12:04:44.189Z,97274.91
2022-09-17T12:07:19.503Z,97250.63
2022-09-17T12:09:50.128Z,97250.22
2022-09-17T12:12:44.811Z,97248.38
2022-09-17T12:15:14.762Z,97248.66
2022-09-17T12:20:36.391Z,97244.72
2022-09-17T12:23:09.875Z,97248.91
2022-09-17T12:25:40.271Z,97256.00
2022-09-17T12:28:09.881Z,97257.81
2022-09-17T12:30:39.600Z,97253.41
2022-09-17T12:36:16.173Z,97255.69
2022-09-17T12:38:51.612Z,97263.06
2022-09-17T12:41:21.808Z,97256.44
2022-09-17T12:44:16.960Z,97247.69
2022-09-17T12:46:56.044Z,97241.84
2022-09-17T12:49:32.686Z,97234.50
2022-09-17T12:52:03.485Z,97240.97
2022-09-17T12:54:45.431Z,97242.22
2022-09-17T12:57:20.265Z,97248.19
2022-09-17T12:59:51.414Z,97239.44
2022-09-17T13:02:22.881Z,97245.66
2022-09-17T13:05:09.314Z,97247.47
2022-09-17T13:07:52.845Z,97256.56
2022-09-17T13:10:28.759Z,97241.06
2022-09-17T13:12:58.793Z,97234.88
2022-09-17T13:15:44.752Z,97231.19
2022-09-17T13:18:27.424Z,97227.91
2022-09-17T13:21:03.805Z,97219.28
2022-09-17T13:23:40.466Z,97213.06
2022-09-17T13:26:09.476Z,97222.56
2022-09-17T13:28:44.643Z,97224.22
2022-09-17T13:31:16.188Z,97208.28
2022-09-17T13:33:54.545Z,97219.84
2022-09-17T13:36:41.806Z,97196.25
2022-09-17T13:39:12.580Z,97208.19
2022-09-17T13:41:41.974Z,97207.84
2022-09-17T13:44:12.669Z,97205.13
2022-09-17T13:46:41.072Z,97195.38
2022-09-17T13:49:15.249Z,97201.00
2022-09-17T13:51:50.645Z,97199.56
2022-09-17T13:54:21.499Z,97195.69
2022-09-17T13:56:52.448Z,97194.22
2022-09-17T13:59:22.351Z,97191.97
2022-09-17T14:02:00.075Z,97186.69
2022-09-17T14:04:37.362Z,97199.44
2022-09-17T14:07:32.765Z,97200.78
2022-09-17T14:10:02.635Z,97196.72
2022-09-17T14:12:53.660Z,97199.94
2022-09-17T14:15:37.236Z,97202.72
2022-09-17T14:18:26.066Z,97201.47
2022-09-17T14:20:55.599Z,97207.03
2022-09-17T14:23:36.375Z,97214.63
2022-09-17T14:28:56.454Z,97286.13
2022-09-17T14:31:26.794Z,97288.97
2022-09-17T14:33:55.236Z,97286.09
2022-09-17T14:36:25.111Z,97271.81
2022-09-17T14:38:55.468Z,97265.84
2022-09-17T14:41:26.234Z,97271.03
2022-09-17T14:43:58.301Z,97260.69
2022-09-17T14:46:28.774Z,97271.13
2022-09-17T14:48:57.259Z,97258.03
2022-09-17T14:51:28.436Z,97265.84
2022-09-17T14:54:20.006Z,97268.09
2022-09-17T14:56:53.758Z,97257.84
2022-09-17T14:59:30.233Z,97263.66
2022-09-17T15:01:58.629Z,97252.16
2022-09-17T15:04:28.673Z,97257.53
2022-09-17T15:09:55.650Z,97247.25
2022-09-17T15:12:27.409Z,97237.53
2022-09-17T15:15:13.295Z,97239.06
2022-09-17T15:17:43.002Z,97243.84
2022-09-17T15:20:12.917Z,97240.03
2022-09-17T15:22:41.283Z,97230.19
2022-09-17T15:25:10.888Z,97241.41
2022-09-17T15:27:42.026Z,97229.50
2022-09-17T15:30:13.657Z,97228.22
2022-09-17T15:32:44.456Z,97242.16
2022-09-17T15:35:32.807Z,97233.16
2022-09-17T15:38:22.841Z,97242.72
2022-09-17T15:40:51.934Z,97234.78
2022-09-17T15:43:26.125Z,97223.28
2022-09-17T15:45:54.765Z,97229.34
2022-09-17T15:48:35.655Z,97230.75
2022-09-17T15:51:04.832Z,97227.66
2022-09-17T15:53:52.562Z,97232.31
2022-09-17T15:56:21.617Z,97231.06
2022-09-17T15:58:56.184Z,97232.59
2022-09-17T16:01:54.500Z,97229.19
2022-09-17T16:04:24.520Z,97231.47
2022-09-17T16:06:56.108Z,97228.66
2022-09-17T16:09:40.563Z,97243.31
2022-09-17T16:12:09.297Z,97230.63
2022-09-17T16:17:29.612Z,97260.66
2022-09-17T16:20:02.494Z,97266.16
2022-09-17T16:22:34.085Z,97269.13
2022-09-17T16:25:32.701Z,97262.34
2022-09-17T16:28:05.572Z,97269.66
2022-09-17T16:30:35.389Z,97252.13
2022-09-17T16:33:06.984Z,97262.84
2022-09-17T16:35:35.332Z,97261.31
2022-09-17T16:38:03.741Z,97274.97
2022-09-17T16:40:32.144Z,97280.00
2022-09-17T16:43:02.097Z,97289.69
2022-09-17T16:45:30.973Z,97288.69
2022-09-17T16:48:00.681Z,97302.00
2022-09-17T16:50:29.051Z,97297.97
2022-09-17T16:53:00.437Z,97308.00
2022-09-17T16:58:17.707Z,97294.69
2022-09-17T17:00:46.250Z,97295.94
2022-09-17T17:03:16.761Z,97288.31
2022-09-17T17:05:45.275Z,97291.69
2022-09-17T17:08:14.845Z,97293.84
2022-09-17T17:10:43.201Z,97287.72
2022-09-17T17:13:11.817Z,97291.69
2022-09-17T17:15:42.113Z,97289.41
2022-09-17T17:18:10.858Z,97297.03
2022-09-17T17:20:40.552Z,97296.09
2022-09-17T17:23:08.872Z,97288.28
2022-09-17T17:25:37.612Z,97292.34
2022-09-17T17:28:05.944Z,97295.88
2022-09-17T17:30:35.156Z,97300.56
2022-09-17T17:33:04.241Z,97292.22
2022-09-17T17:35:33.072Z,97296.31
2022-09-17T17:38:03.500Z,97299.91
2022-09-17T17:40:32.580Z,97305.16
2022-09-17T17:43:01.089Z,97303.16
2022-09-17T17:45:29.613Z,97314.53
2022-09-17T17:47:57.990Z,97313.66
2022-09-17T17:50:28.084Z,97321.91
2022-09-17T17:52:56.396Z,97322.63
2022-09-17T17:55:26.970Z,97327.03
2022-09-17T17:58:10.673Z,97320.28
2022-09-17T18:00:41.528Z,97309.16
2022-09-17T18:03:11.139Z,97312.66
2022-09-17T18:05:40.971Z,97317.97
2022-09-17T18:08:09.718Z,97327.16
2022-09-17T18:10:43.849Z,97329.69
2022-09-17T18:13:12.204Z,97329.66
2022-09-17T18:15:40.670Z,97324.53
2022-09-17T18:18:09.081Z,97328.56
2022-09-17T18:20:38.823Z,97336.25
2022-09-17T18:23:08.010Z,97335.50
2022-09-17T18:25:39.948Z,97349.31
2022-09-17T18:28:09.711Z,97346.19
2022-09-17T18:30:38.787Z,97354.31
2022-09-17T18:33:07.116Z,97343.44
2022-09-17T18:35:37.508Z,97354.94
2022-09-17T18:38:07.339Z,97363.75
2022-09-17T18:40:35.740Z,97359.75
2022-09-17T18:43:05.870Z,97361.09
2022-09-17T18:45:35.762Z,97350.00
2022-09-17T18:48:04.588Z,97351.47
2022-09-17T18:50:32.889Z,97346.53
2022-09-17T18:53:01.724Z,97345.19
2022-09-17T18:55:48.800Z,97349.75
2022-09-17T18:58:17.159Z,97348.34
2022-09-17T19:00:46.998Z,97351.63
2022-09-17T19:03:19.050Z,97352.91
2022-09-17T19:05:47.435Z,97353.88
2022-09-17T19:08:15.938Z,97350.84
2022-09-17T19:10:44.699Z,97353.75
2022-09-17T19:13:13.026Z,97347.31
2022-09-17T19:15:42.518Z,97350.16
2022-09-17T19:18:13.402Z,97359.13
2022-09-17T19:20:41.907Z,97353.88
2022-09-17T19:23:10.209Z,97342.94
2022-09-17T19:25:39.006Z,97352.38
2022-09-17T19:28:07.737Z,97360.34
2022-09-17T19:30:36.174Z,97355.31
2022-09-17T19:33:04.722Z,97360.28
2022-09-17T19:35:34.564Z,97359.94
2022-09-17T19:38:04.108Z,97356.63
2022-09-17T19:40:32.511Z,97361.91
2022-09-17T19:43:01.315Z,97371.69
2022-09-17T19:45:29.677Z,97360.81
2022-09-17T19:48:01.849Z,97363.94
2022-09-17T19:50:30.237Z,97354.16
2022-09-17T19:52:59.952Z,97359.38
2022-09-17T19:55:28.807Z,97362.16
2022-09-17T19:57:57.108Z,97368.19
2022-09-17T20:00:25.723Z,97364.09
2022-09-17T20:02:54.105Z,97364.16
2022-09-17T20:05:22.953Z,97370.19
2022-09-17T20:07:51.511Z,97376.06
2022-09-17T20:10:24.150Z,97379.22
2022-09-17T20:12:52.509Z,97374.19
2022-09-17T20:15:20.809Z,97372.16
2022-09-17T20:17:49.291Z,97370.09
2022-09-17T20:20:18.416Z,97378.81
2022-09-17T20:22:48.346Z,97378.13
2022-09-17T20:25:16.717Z,97377.13
2022-09-17T20:27:46.402Z,97381.28
2022-09-17T20:30:15.322Z,97383.53
2022-09-17T20:32:45.806Z,97388.81
2022-09-17T20:35:14.260Z,97379.78
2022-09-17T20:40:53.523Z,97385.00
2022-09-17T20:43:24.298Z,97382.91
2022-09-17T20:45:57.803Z,97393.88
2022-09-17T20:48:26.124Z,97386.34
2022-09-17T20:50:57.739Z,97390.06
2022-09-17T20:53:26.181Z,97390.06
2022-09-17T20:55:57.232Z,97390.00
2022-09-17T20:58:27.567Z,97381.25
2022-09-17T21:00:56.270Z,97378.84
2022-09-17T21:03:26.318Z,97384.34
2022-09-17T21:05:54.677Z,97384.94
2022-09-17T21:08:25.342Z,97384.69
2022-09-17T21:10:55.146Z,97377.53
2022-09-17T21:13:23.463Z,97378.75
2022-09-17T21:15:59.032Z,97374.63
2022-09-17T21:18:27.519Z,97378.28
2022-09-17T21:20:56.269Z,97374.16
2022-09-17T21:23:25.596Z,97381.69
2022-09-17T21:25:53.947Z,97386.72
2022-09-17T21:28:22.344Z,97375.28
2022-09-17T21:30:56.661Z,97386.72
2022-09-17T21:33:26.350Z,97378.16
2022-09-17T21:35:54.716Z,97388.00
2022-09-17T21:38:24.474Z,97375.69
2022-09-17T21:40:57.436Z,97379.72
2022-09-17T21:43:25.902Z,97382.28
2022-09-17T21:46:01.754Z,97385.63
2022-09-17T21:48:31.764Z,97389.91
2022-09-17T21:51:04.480Z,97374.44
2022-09-17T21:53:33.305Z,97386.06
2022-09-17T21:56:04.163Z,97383.16
2022-09-17T21:58:32.879Z,97377.13
2022-09-17T22:01:06.892Z,97383.53
2022-09-17T22:03:36.624Z,97381.69
2022-09-17T22:06:06.214Z,97382.13
2022-09-17T22:08:34.665Z,97377.31
2022-09-17T22:11:07.343Z,97378.13
2022-09-17T22:13:36.377Z,97385.63
2022-09-17T22:16:05.390Z,97383.78
2022-09-17T22:18:33.860Z,97381.09
2022-09-17T22:21:29.918Z,97388.09
2022-09-17T22:23:58.973Z,97390.22
2022-09-17T22:26:46.454Z,97387.97
2022-09-17T22:29:15.595Z,97383.03
2022-09-17T22:31:47.081Z,97386.28
2022-09-17T22:34:16.452Z,97393.22
2022-09-17T22:36:46.162Z,97380.00
2022-09-17T22:39:14.929Z,97382.06
2022-09-17T22:41:45.869Z,97382.13
2022-09-17T22:44:15.911Z,97388.06
2022-09-17T22:46:46.519Z,97387.00
2022-09-17T22:49:15.152Z,97391.06
2022-09-17T22:51:43.539Z,97381.78
2022-09-17T22:54:13.765Z,97380.59
2022-09-17T22:56:43.648Z,97383.53
2022-09-17T22:59:12.016Z,97387.28
2022-09-17T23:01:40.556Z,97385.84
2022-09-17T23:04:09.394Z,97381.44
2022-09-17T23:06:43.882Z,97374.94
2022-09-17T23:09:14.914Z,97376.66
2022-09-17T23:11:43.279Z,97375.78
2022-09-17T23:14:12.997Z,97384.84
2022-09-17T23:16:42.094Z,97378.13
2022-09-17T23:19:10.423Z,97386.28
2022-09-17T23:21:39.255Z,97380.38
2022-09-17T23:24:07.850Z,97377.91
2022-09-17T23:26:37.655Z,97384.25
2022-09-17T23:29:06.513Z,97388.34
2022-09-17T23:31:35.996Z,97384.34
2022-09-17T23:34:04.787Z,97377.16
2022-09-17T23:36:34.749Z,97377.00
2022-09-17T23:39:03.562Z,97385.53
2022-09-17T23:41:32.734Z,97384.13
2022-09-17T23:44:03.211Z,97379.28
2022-09-17T23:46:34.049Z,97373.88
2022-09-17T23:49:02.488Z,97379.25
2022-09-17T23:51:31.982Z,97378.56
2022-09-17T23:54:01.793Z,97377.75
2022-09-17T23:56:30.264Z,97376.16
2022-09-17T23:59:00.315Z,97368.88
